sensor_id;sensor_type;location;lat;lon;timestamp;pressure;altitude;pressure_sealevel;temperature;humidity
34237;BME280;20501;45.956;13.632;2023-03-15T00:01:33;99325.09;;;11.88;72.99
34237;BME280;20501;45.956;13.632;2023-03-15T00:03:59;99324.66;;;12.08;72.17
34237;BME280;20501;45.956;13.632;2023-03-15T00:06:25;99329.97;;;12.39;70.31
34237;BME280;20501;45.956;13.632;2023-03-15T00:08:50;99332.38;;;12.19;71.92
34237;BME280;20501;45.956;13.632;2023-03-15T00:11:17;99340.66;;;12.41;71.11
34237;BME280;20501;45.956;13.632;2023-03-15T00:13:44;99337.06;;;12.26;71.31
34237;BME280;20501;45.956;13.632;2023-03-15T00:16:10;99336.81;;;12.12;69.25
34237;BME280;20501;45.956;13.632;2023-03-15T00:18:36;99340.44;;;12.96;69.01
34237;BME280;20501;45.956;13.632;2023-03-15T00:21:01;99342.09;;;12.05;70.80
34237;BME280;20501;45.956;13.632;2023-03-15T00:23:27;99327.84;;;12.73;69.89
34237;BME280;20501;45.956;13.632;2023-03-15T00:25:52;99336.72;;;11.97;72.15
34237;BME280;20501;45.956;13.632;2023-03-15T00:28:18;99336.13;;;12.87;69.18
34237;BME280;20501;45.956;13.632;2023-03-15T00:30:43;99332.91;;;12.15;71.58
34237;BME280;20501;45.956;13.632;2023-03-15T00:33:13;99333.06;;;12.36;70.28
34237;BME280;20501;45.956;13.632;2023-03-15T00:35:40;99340.38;;;11.50;73.32
34237;BME280;20501;45.956;13.632;2023-03-15T00:38:06;99333.19;;;11.65;73.04
34237;BME280;20501;45.956;13.632;2023-03-15T00:40:32;99336.53;;;11.36;73.70
34237;BME280;20501;45.956;13.632;2023-03-15T00:42:57;99338.25;;;12.61;70.28
34237;BME280;20501;45.956;13.632;2023-03-15T00:45:23;99343.53;;;12.93;69.03
34237;BME280;20501;45.956;13.632;2023-03-15T00:47:50;99348.72;;;10.83;72.82
34237;BME280;20501;45.956;13.632;2023-03-15T00:50:15;99347.53;;;10.69;74.53
34237;BME280;20501;45.956;13.632;2023-03-15T00:52:41;99359.34;;;10.02;77.63
34237;BME280;20501;45.956;13.632;2023-03-15T00:55:10;99359.28;;;11.02;76.43
34237;BME280;20501;45.956;13.632;2023-03-15T00:57:38;99359.03;;;10.30;78.28
34237;BME280;20501;45.956;13.632;2023-03-15T01:00:06;99358.50;;;11.41;73.76
34237;BME280;20501;45.956;13.632;2023-03-15T01:02:32;99347.69;;;11.41;72.29
34237;BME280;20501;45.956;13.632;2023-03-15T01:04:58;99365.34;;;11.91;72.88
34237;BME280;20501;45.956;13.632;2023-03-15T01:07:23;99362.47;;;12.63;69.75
34237;BME280;20501;45.956;13.632;2023-03-15T01:09:49;99355.94;;;12.57;69.80
34237;BME280;20501;45.956;13.632;2023-03-15T01:12:15;99343.81;;;11.35;70.86
34237;BME280;20501;45.956;13.632;2023-03-15T01:14:40;99350.94;;;10.55;74.22
34237;BME280;20501;45.956;13.632;2023-03-15T01:17:06;99355.59;;;9.79;79.36
34237;BME280;20501;45.956;13.632;2023-03-15T01:19:31;99354.13;;;10.75;76.33
34237;BME280;20501;45.956;13.632;2023-03-15T01:21:56;99360.41;;;10.43;77.67
34237;BME280;20501;45.956;13.632;2023-03-15T01:24:22;99349.22;;;10.71;75.48
34237;BME280;20501;45.956;13.632;2023-03-15T01:26:47;99356.78;;;11.00;75.81
34237;BME280;20501;45.956;13.632;2023-03-15T01:29:13;99353.94;;;11.41;74.14
34237;BME280;20501;45.956;13.632;2023-03-15T01:31:39;99346.44;;;12.15;70.11
34237;BME280;20501;45.956;13.632;2023-03-15T01:34:05;99354.97;;;12.65;69.25
34237;BME280;20501;45.956;13.632;2023-03-15T01:36:30;99356.91;;;12.94;68.05
34237;BME280;20501;45.956;13.632;2023-03-15T01:38:56;99358.41;;;12.20;70.08
34237;BME280;20501;45.956;13.632;2023-03-15T01:41:22;99358.22;;;10.63;73.02
34237;BME280;20501;45.956;13.632;2023-03-15T01:43:49;99357.28;;;10.95;72.41
34237;BME280;20501;45.956;13.632;2023-03-15T01:51:31;99361.31;;;11.87;71.63
34237;BME280;20501;45.956;13.632;2023-03-15T01:56:42;99359.91;;;12.00;70.50
34237;BME280;20501;45.956;13.632;2023-03-15T01:59:15;99364.25;;;11.77;67.88
34237;BME280;20501;45.956;13.632;2023-03-15T02:01:42;99374.72;;;11.41;71.52
34237;BME280;20501;45.956;13.632;2023-03-15T02:04:13;99374.22;;;10.40;73.29
34237;BME280;20501;45.956;13.632;2023-03-15T02:06:41;99369.84;;;10.63;76.53
34237;BME280;20501;45.956;13.632;2023-03-15T02:09:13;99370.41;;;11.95;70.85
34237;BME280;20501;45.956;13.632;2023-03-15T02:11:40;99369.59;;;11.54;70.90
34237;BME280;20501;45.956;13.632;2023-03-15T02:14:07;99376.97;;;11.69;71.99
34237;BME280;20501;45.956;13.632;2023-03-15T02:16:34;99377.47;;;12.04;70.96
34237;BME280;20501;45.956;13.632;2023-03-15T02:18:59;99381.13;;;10.26;73.56
34237;BME280;20501;45.956;13.632;2023-03-15T02:21:45;99384.13;;;11.13;71.85
34237;BME280;20501;45.956;13.632;2023-03-15T02:24:29;99389.34;;;12.49;69.34
34237;BME280;20501;45.956;13.632;2023-03-15T02:26:58;99383.41;;;11.28;69.73
34237;BME280;20501;45.956;13.632;2023-03-15T02:29:25;99398.81;;;10.20;74.07
34237;BME280;20501;45.956;13.632;2023-03-15T02:31:53;99399.50;;;10.30;76.33
34237;BME280;20501;45.956;13.632;2023-03-15T02:34:19;99387.34;;;10.92;72.59
34237;BME280;20501;45.956;13.632;2023-03-15T02:36:50;99394.66;;;10.67;74.72
34237;BME280;20501;45.956;13.632;2023-03-15T02:39:18;99395.28;;;11.02;74.60
34237;BME280;20501;45.956;13.632;2023-03-15T02:41:51;99405.63;;;10.57;74.79
34237;BME280;20501;45.956;13.632;2023-03-15T02:44:36;99414.38;;;10.34;73.54
34237;BME280;20501;45.956;13.632;2023-03-15T02:47:20;99413.41;;;11.50;72.61
34237;BME280;20501;45.956;13.632;2023-03-15T02:49:51;99412.69;;;10.83;72.71
34237;BME280;20501;45.956;13.632;2023-03-15T02:52:18;99415.59;;;10.40;72.25
34237;BME280;20501;45.956;13.632;2023-03-15T02:54:43;99421.00;;;10.48;74.78
34237;BME280;20501;45.956;13.632;2023-03-15T02:57:10;99424.75;;;9.96;74.00
34237;BME280;20501;45.956;13.632;2023-03-15T02:59:37;99428.50;;;9.60;74.39
34237;BME280;20501;45.956;13.632;2023-03-15T03:02:02;99433.38;;;9.57;73.72
34237;BME280;20501;45.956;13.632;2023-03-15T03:04:28;99443.50;;;9.63;76.38
34237;BME280;20501;45.956;13.632;2023-03-15T03:06:53;99445.28;;;9.81;74.10
34237;BME280;20501;45.956;13.632;2023-03-15T03:09:19;99455.97;;;9.99;76.16
34237;BME280;20501;45.956;13.632;2023-03-15T03:11:44;99449.63;;;9.39;74.26
34237;BME280;20501;45.956;13.632;2023-03-15T03:14:10;99458.25;;;9.77;75.20
34237;BME280;20501;45.956;13.632;2023-03-15T03:16:38;99461.31;;;9.90;74.89
34237;BME280;20501;45.956;13.632;2023-03-15T03:19:04;99464.38;;;10.47;73.14
34237;BME280;20501;45.956;13.632;2023-03-15T03:21:29;99467.69;;;11.23;72.52
34237;BME280;20501;45.956;13.632;2023-03-15T03:23:55;99470.75;;;9.86;74.62
34237;BME280;20501;45.956;13.632;2023-03-15T03:26:20;99481.91;;;10.00;72.55
34237;BME280;20501;45.956;13.632;2023-03-15T03:28:46;99478.81;;;9.43;75.22
34237;BME280;20501;45.956;13.632;2023-03-15T03:31:21;99489.19;;;10.59;74.10
34237;BME280;20501;45.956;13.632;2023-03-15T03:33:46;99497.47;;;11.07;72.93
34237;BME280;20501;45.956;13.632;2023-03-15T03:36:12;99491.63;;;11.59;67.98
34237;BME280;20501;45.956;13.632;2023-03-15T03:38:42;99500.84;;;11.17;72.89
34237;BME280;20501;45.956;13.632;2023-03-15T03:41:09;99503.34;;;10.01;76.81
34237;BME280;20501;45.956;13.632;2023-03-15T03:43:36;99512.56;;;10.33;75.86
34237;BME280;20501;45.956;13.632;2023-03-15T03:46:02;99516.28;;;10.32;76.46
34237;BME280;20501;45.956;13.632;2023-03-15T03:48:28;99520.59;;;9.74;77.96
34237;BME280;20501;45.956;13.632;2023-03-15T03:50:53;99531.75;;;9.79;74.41
34237;BME280;20501;45.956;13.632;2023-03-15T03:53:19;99531.22;;;9.75;77.09
34237;BME280;20501;45.956;13.632;2023-03-15T03:55:44;99547.47;;;10.35;75.86
34237;BME280;20501;45.956;13.632;2023-03-15T03:58:11;99541.47;;;10.41;72.46
34237;BME280;20501;45.956;13.632;2023-03-15T04:00:37;99546.97;;;10.31;71.95
34237;BME280;20501;45.956;13.632;2023-03-15T04:03:02;99554.97;;;10.41;74.15
34237;BME280;20501;45.956;13.632;2023-03-15T04:05:28;99561.63;;;10.72;72.49
34237;BME280;20501;45.956;13.632;2023-03-15T04:07:53;99561.28;;;11.49;71.48
34237;BME280;20501;45.956;13.632;2023-03-15T04:10:19;99558.00;;;11.87;69.65
34237;BME280;20501;45.956;13.632;2023-03-15T04:12:52;99561.13;;;9.11;76.14
34237;BME280;20501;45.956;13.632;2023-03-15T04:15:18;99573.00;;;9.71;74.46
34237;BME280;20501;45.956;13.632;2023-03-15T04:17:47;99585.72;;;9.35;76.92
34237;BME280;20501;45.956;13.632;2023-03-15T04:20:12;99588.00;;;11.36;71.61
34237;BME280;20501;45.956;13.632;2023-03-15T04:22:42;99594.31;;;10.52;70.63
34237;BME280;20501;45.956;13.632;2023-03-15T04:25:14;99597.81;;;11.28;70.73
34237;BME280;20501;45.956;13.632;2023-03-15T04:27:40;99598.97;;;11.75;69.46
34237;BME280;20501;45.956;13.632;2023-03-15T04:30:06;99601.47;;;11.77;67.19
34237;BME280;20501;45.956;13.632;2023-03-15T04:32:32;99609.78;;;12.00;57.01
34237;BME280;20501;45.956;13.632;2023-03-15T04:34:57;99614.50;;;11.98;66.46
34237;BME280;20501;45.956;13.632;2023-03-15T04:37:23;99614.44;;;12.23;65.68
34237;BME280;20501;45.956;13.632;2023-03-15T04:39:48;99609.91;;;11.90;64.76
34237;BME280;20501;45.956;13.632;2023-03-15T04:42:16;99623.66;;;11.39;62.15
34237;BME280;20501;45.956;13.632;2023-03-15T04:44:42;99623.50;;;11.57;62.14
34237;BME280;20501;45.956;13.632;2023-03-15T04:47:07;99625.16;;;11.83;64.69
34237;BME280;20501;45.956;13.632;2023-03-15T04:49:33;99623.25;;;12.17;64.04
34237;BME280;20501;45.956;13.632;2023-03-15T04:51:59;99641.72;;;11.97;64.72
34237;BME280;20501;45.956;13.632;2023-03-15T04:54:25;99638.97;;;12.30;63.20
34237;BME280;20501;45.956;13.632;2023-03-15T04:56:50;99638.34;;;12.51;60.01
34237;BME280;20501;45.956;13.632;2023-03-15T04:59:15;99647.47;;;11.77;56.35
34237;BME280;20501;45.956;13.632;2023-03-15T05:01:41;99658.00;;;11.55;62.61
34237;BME280;20501;45.956;13.632;2023-03-15T05:04:06;99667.59;;;12.07;64.13
34237;BME280;20501;45.956;13.632;2023-03-15T05:06:32;99667.63;;;11.33;61.55
34237;BME280;20501;45.956;13.632;2023-03-15T05:08:58;99669.84;;;11.54;60.86
34237;BME280;20501;45.956;13.632;2023-03-15T05:11:23;99679.47;;;11.65;64.13
34237;BME280;20501;45.956;13.632;2023-03-15T05:13:49;99676.75;;;11.57;58.83
34237;BME280;20501;45.956;13.632;2023-03-15T05:16:14;99678.78;;;11.88;63.03
34237;BME280;20501;45.956;13.632;2023-03-15T05:18:39;99682.34;;;11.64;57.79
34237;BME280;20501;45.956;13.632;2023-03-15T05:21:05;99686.06;;;11.71;63.15
34237;BME280;20501;45.956;13.632;2023-03-15T05:23:31;99672.78;;;11.02;58.42
34237;BME280;20501;45.956;13.632;2023-03-15T05:25:58;99673.53;;;10.69;59.51
34237;BME280;20501;45.956;13.632;2023-03-15T05:28:24;99670.72;;;10.79;58.59
34237;BME280;20501;45.956;13.632;2023-03-15T05:30:51;99664.16;;;10.20;60.37
34237;BME280;20501;45.956;13.632;2023-03-15T05:33:17;99653.63;;;9.83;59.40
34237;BME280;20501;45.956;13.632;2023-03-15T05:35:43;99654.19;;;9.42;59.26
34237;BME280;20501;45.956;13.632;2023-03-15T05:38:09;99652.84;;;9.64;61.25
34237;BME280;20501;45.956;13.632;2023-03-15T05:40:39;99657.75;;;9.69;62.14
34237;BME280;20501;45.956;13.632;2023-03-15T05:43:05;99661.84;;;9.99;59.46
34237;BME280;20501;45.956;13.632;2023-03-15T05:45:31;99662.38;;;9.76;59.18
34237;BME280;20501;45.956;13.632;2023-03-15T05:47:56;99669.84;;;9.38;57.88
34237;BME280;20501;45.956;13.632;2023-03-15T05:50:22;99660.81;;;9.48;56.79
34237;BME280;20501;45.956;13.632;2023-03-15T05:52:49;99677.88;;;10.27;59.99
34237;BME280;20501;45.956;13.632;2023-03-15T05:55:15;99679.34;;;9.95;58.74
34237;BME280;20501;45.956;13.632;2023-03-15T05:57:41;99668.31;;;9.80;57.92
34237;BME280;20501;45.956;13.632;2023-03-15T06:00:07;99666.94;;;10.02;62.43
34237;BME280;20501;45.956;13.632;2023-03-15T06:02:33;99658.22;;;10.43;61.92
34237;BME280;20501;45.956;13.632;2023-03-15T06:04:58;99664.03;;;9.96;61.17
34237;BME280;20501;45.956;13.632;2023-03-15T06:07:24;99669.66;;;10.37;57.71
34237;BME280;20501;45.956;13.632;2023-03-15T06:09:49;99675.03;;;10.29;60.64
34237;BME280;20501;45.956;13.632;2023-03-15T06:12:16;99670.94;;;9.72;58.41
34237;BME280;20501;45.956;13.632;2023-03-15T06:14:41;99685.84;;;9.22;61.14
34237;BME280;20501;45.956;13.632;2023-03-15T06:17:07;99690.69;;;9.36;59.84
34237;BME280;20501;45.956;13.632;2023-03-15T06:19:33;99693.75;;;9.41;59.12
34237;BME280;20501;45.956;13.632;2023-03-15T06:21:58;99684.75;;;9.51;58.95
34237;BME280;20501;45.956;13.632;2023-03-15T06:24:24;99691.75;;;9.43;59.15
34237;BME280;20501;45.956;13.632;2023-03-15T06:26:49;99692.34;;;9.73;59.66
34237;BME280;20501;45.956;13.632;2023-03-15T06:29:15;99698.38;;;10.38;58.56
34237;BME280;20501;45.956;13.632;2023-03-15T06:31:41;99697.13;;;10.59;58.91
34237;BME280;20501;45.956;13.632;2023-03-15T06:34:07;99707.91;;;11.02;59.41
34237;BME280;20501;45.956;13.632;2023-03-15T06:36:33;99721.69;;;10.74;59.72
34237;BME280;20501;45.956;13.632;2023-03-15T06:38:58;99733.44;;;11.07;55.91
34237;BME280;20501;45.956;13.632;2023-03-15T06:41:24;99738.41;;;11.28;59.59
34237;BME280;20501;45.956;13.632;2023-03-15T06:43:50;99747.72;;;10.48;61.80
34237;BME280;20501;45.956;13.632;2023-03-15T06:46:16;99765.13;;;10.89;58.18
34237;BME280;20501;45.956;13.632;2023-03-15T06:48:41;99761.69;;;11.13;54.39
34237;BME280;20501;45.956;13.632;2023-03-15T06:51:07;99763.63;;;10.33;55.90
34237;BME280;20501;45.956;13.632;2023-03-15T06:53:33;99767.59;;;10.21;57.31
34237;BME280;20501;45.956;13.632;2023-03-15T06:55:59;99763.22;;;10.46;58.35
34237;BME280;20501;45.956;13.632;2023-03-15T06:58:24;99771.78;;;11.03;58.86
34237;BME280;20501;45.956;13.632;2023-03-15T07:00:50;99781.44;;;11.05;59.19
34237;BME280;20501;45.956;13.632;2023-03-15T07:03:15;99778.94;;;11.20;55.87
34237;BME280;20501;45.956;13.632;2023-03-15T07:05:41;99781.16;;;11.25;58.22
34237;BME280;20501;45.956;13.632;2023-03-15T07:08:06;99788.41;;;10.47;52.07
34237;BME280;20501;45.956;13.632;2023-03-15T07:10:32;99800.47;;;11.38;59.05
34237;BME280;20501;45.956;13.632;2023-03-15T07:12:57;99802.06;;;11.90;51.91
34237;BME280;20501;45.956;13.632;2023-03-15T07:15:23;99801.78;;;10.57;52.19
34237;BME280;20501;45.956;13.632;2023-03-15T07:17:48;99807.69;;;11.21;55.71
34237;BME280;20501;45.956;13.632;2023-03-15T07:20:14;99816.97;;;10.58;52.66
34237;BME280;20501;45.956;13.632;2023-03-15T07:22:39;99816.63;;;10.79;52.35
34237;BME280;20501;45.956;13.632;2023-03-15T07:25:05;99828.38;;;11.04;50.58
34237;BME280;20501;45.956;13.632;2023-03-15T07:27:32;99828.28;;;10.88;58.21
34237;BME280;20501;45.956;13.632;2023-03-15T07:29:57;99837.19;;;10.53;51.09
34237;BME280;20501;45.956;13.632;2023-03-15T07:32:23;99837.78;;;11.35;51.92
34237;BME280;20501;45.956;13.632;2023-03-15T07:34:48;99849.88;;;11.57;58.06
34237;BME280;20501;45.956;13.632;2023-03-15T07:37:14;99839.44;;;10.84;52.24
34237;BME280;20501;45.956;13.632;2023-03-15T07:39:39;99851.56;;;10.36;51.33
34237;BME280;20501;45.956;13.632;2023-03-15T07:42:05;99854.50;;;10.25;51.17
34237;BME280;20501;45.956;13.632;2023-03-15T07:44:31;99865.97;;;10.63;52.67
34237;BME280;20501;45.956;13.632;2023-03-15T07:46:57;99867.19;;;10.68;53.95
34237;BME280;20501;45.956;13.632;2023-03-15T07:49:22;99868.69;;;10.63;51.30
34237;BME280;20501;45.956;13.632;2023-03-15T07:51:48;99871.53;;;10.61;51.47
34237;BME280;20501;45.956;13.632;2023-03-15T07:54:14;99880.53;;;11.66;56.25
34237;BME280;20501;45.956;13.632;2023-03-15T07:56:39;99885.38;;;11.62;53.99
34237;BME280;20501;45.956;13.632;2023-03-15T07:59:04;99892.75;;;11.86;55.96
34237;BME280;20501;45.956;13.632;2023-03-15T08:01:30;99901.69;;;11.36;55.41
34237;BME280;20501;45.956;13.632;2023-03-15T08:03:55;99904.13;;;10.86;50.81
34237;BME280;20501;45.956;13.632;2023-03-15T08:06:21;99895.09;;;10.77;53.17
34237;BME280;20501;45.956;13.632;2023-03-15T08:08:46;99898.44;;;11.24;50.97
34237;BME280;20501;45.956;13.632;2023-03-15T08:11:12;99903.56;;;11.35;56.11
34237;BME280;20501;45.956;13.632;2023-03-15T08:13:37;99899.31;;;11.33;53.98
34237;BME280;20501;45.956;13.632;2023-03-15T08:16:02;99887.72;;;10.61;51.41
34237;BME280;20501;45.956;13.632;2023-03-15T08:18:28;99893.47;;;11.11;54.42
34237;BME280;20501;45.956;13.632;2023-03-15T08:20:54;99895.53;;;10.91;51.77
34237;BME280;20501;45.956;13.632;2023-03-15T08:23:20;99890.91;;;11.09;54.48
34237;BME280;20501;45.956;13.632;2023-03-15T08:25:46;99894.47;;;10.83;48.44
34237;BME280;20501;45.956;13.632;2023-03-15T08:28:13;99897.91;;;11.20;49.29
34237;BME280;20501;45.956;13.632;2023-03-15T08:30:39;99908.03;;;11.61;51.00
34237;BME280;20501;45.956;13.632;2023-03-15T08:33:06;99900.59;;;11.20;49.49
34237;BME280;20501;45.956;13.632;2023-03-15T08:35:31;99896.41;;;11.26;53.85
34237;BME280;20501;45.956;13.632;2023-03-15T08:37:59;99901.44;;;11.55;53.86
34237;BME280;20501;45.956;13.632;2023-03-15T08:40:28;99891.88;;;11.86;53.02
34237;BME280;20501;45.956;13.632;2023-03-15T08:42:53;99905.13;;;11.11;45.97
34237;BME280;20501;45.956;13.632;2023-03-15T08:45:20;99904.34;;;10.93;46.10
34237;BME280;20501;45.956;13.632;2023-03-15T08:47:48;99912.03;;;11.14;51.75
34237;BME280;20501;45.956;13.632;2023-03-15T08:50:14;99916.03;;;11.71;52.92
34237;BME280;20501;45.956;13.632;2023-03-15T08:52:41;99923.38;;;11.95;53.27
34237;BME280;20501;45.956;13.632;2023-03-15T08:55:07;99929.00;;;11.24;49.19
34237;BME280;20501;45.956;13.632;2023-03-15T08:57:32;99928.53;;;11.03;48.62
34237;BME280;20501;45.956;13.632;2023-03-15T08:59:59;99934.88;;;11.20;49.20
34237;BME280;20501;45.956;13.632;2023-03-15T09:02:28;99934.19;;;11.18;49.55
34237;BME280;20501;45.956;13.632;2023-03-15T09:04:54;99928.06;;;11.07;52.50
34237;BME280;20501;45.956;13.632;2023-03-15T09:07:19;99934.91;;;10.93;47.43
34237;BME280;20501;45.956;13.632;2023-03-15T09:09:46;99932.97;;;10.86;48.85
34237;BME280;20501;45.956;13.632;2023-03-15T09:12:16;99934.03;;;10.66;46.61
34237;BME280;20501;45.956;13.632;2023-03-15T09:14:42;99936.72;;;10.84;48.44
34237;BME280;20501;45.956;13.632;2023-03-15T09:17:08;99940.56;;;10.82;46.38
34237;BME280;20501;45.956;13.632;2023-03-15T09:19:33;99943.91;;;10.58;46.60
34237;BME280;20501;45.956;13.632;2023-03-15T09:21:59;99947.66;;;11.09;49.72
34237;BME280;20501;45.956;13.632;2023-03-15T09:24:24;99955.25;;;10.79;48.55
34237;BME280;20501;45.956;13.632;2023-03-15T09:26:50;99953.88;;;11.02;52.05
34237;BME280;20501;45.956;13.632;2023-03-15T09:29:15;99964.28;;;11.14;51.32
34237;BME280;20501;45.956;13.632;2023-03-15T09:31:41;99955.72;;;11.27;50.74
34237;BME280;20501;45.956;13.632;2023-03-15T09:34:06;99975.91;;;12.11;52.75
34237;BME280;20501;45.956;13.632;2023-03-15T09:36:32;99972.06;;;11.44;51.96
34237;BME280;20501;45.956;13.632;2023-03-15T09:38:58;99973.41;;;11.48;49.80
34237;BME280;20501;45.956;13.632;2023-03-15T09:41:48;99982.72;;;12.31;53.72
34237;BME280;20501;45.956;13.632;2023-03-15T09:50:12;99984.72;;;12.13;52.02
34237;BME280;20501;45.956;13.632;2023-03-15T09:52:48;99992.06;;;11.59;51.98
34237;BME280;20501;45.956;13.632;2023-03-15T09:55:19;100000.44;;;12.09;48.02
34237;BME280;20501;45.956;13.632;2023-03-15T09:58:00;99996.47;;;12.54;53.93
34237;BME280;20501;45.956;13.632;2023-03-15T10:00:46;99999.59;;;11.74;46.65
34237;BME280;20501;45.956;13.632;2023-03-15T10:03:48;99994.31;;;11.72;43.65
34237;BME280;20501;45.956;13.632;2023-03-15T10:08:49;99995.47;;;11.61;41.40
34237;BME280;20501;45.956;13.632;2023-03-15T10:11:55;100001.56;;;11.64;43.23
34237;BME280;20501;45.956;13.632;2023-03-15T10:14:36;100006.41;;;11.86;45.99
34237;BME280;20501;45.956;13.632;2023-03-15T10:17:12;100008.47;;;11.92;42.87
34237;BME280;20501;45.956;13.632;2023-03-15T10:19:49;100009.63;;;11.82;51.18
34237;BME280;20501;45.956;13.632;2023-03-15T10:22:25;100020.44;;;12.16;52.05
34237;BME280;20501;45.956;13.632;2023-03-15T10:25:00;100021.06;;;12.94;49.66
34237;BME280;20501;45.956;13.632;2023-03-15T10:27:49;100020.56;;;12.06;40.63
34237;BME280;20501;45.956;13.632;2023-03-15T10:30:29;100016.00;;;12.07;42.21
34237;BME280;20501;45.956;13.632;2023-03-15T10:33:01;100015.44;;;12.46;45.43
34237;BME280;20501;45.956;13.632;2023-03-15T10:35:28;100024.94;;;12.59;44.91
34237;BME280;20501;45.956;13.632;2023-03-15T10:37:54;100012.56;;;12.64;43.29
34237;BME280;20501;45.956;13.632;2023-03-15T10:43:20;100022.41;;;12.57;39.41
34237;BME280;20501;45.956;13.632;2023-03-15T10:46:13;100023.88;;;12.35;40.02
34237;BME280;20501;45.956;13.632;2023-03-15T10:48:59;100022.88;;;12.44;38.96
34237;BME280;20501;45.956;13.632;2023-03-15T10:51:31;100021.22;;;12.68;38.81
34237;BME280;20501;45.956;13.632;2023-03-15T10:56:44;100024.56;;;12.53;42.58
34237;BME280;20501;45.956;13.632;2023-03-15T10:59:31;100019.88;;;12.97;46.60
34237;BME280;20501;45.956;13.632;2023-03-15T11:02:17;100019.88;;;12.97;35.52
34237;BME280;20501;45.956;13.632;2023-03-15T11:04:49;100015.81;;;13.26;38.59
34237;BME280;20501;45.956;13.632;2023-03-15T11:07:23;100029.38;;;13.26;39.79
34237;BME280;20501;45.956;13.632;2023-03-15T11:09:58;100022.06;;;13.01;36.59
34237;BME280;20501;45.956;13.632;2023-03-15T11:12:26;100023.28;;;12.82;35.26
34237;BME280;20501;45.956;13.632;2023-03-15T11:14:57;100022.25;;;12.92;40.05
34237;BME280;20501;45.956;13.632;2023-03-15T11:17:26;100026.50;;;13.11;35.21
34237;BME280;20501;45.956;13.632;2023-03-15T11:19:59;100024.44;;;12.96;35.89
34237;BME280;20501;45.956;13.632;2023-03-15T11:22:34;100030.91;;;13.20;36.87
34237;BME280;20501;45.956;13.632;2023-03-15T11:24:59;100032.88;;;13.35;37.54
34237;BME280;20501;45.956;13.632;2023-03-15T11:27:25;100026.28;;;13.54;38.97
34237;BME280;20501;45.956;13.632;2023-03-15T11:29:55;100032.88;;;13.59;35.53
34237;BME280;20501;45.956;13.632;2023-03-15T11:32:24;100043.28;;;13.48;32.84
34237;BME280;20501;45.956;13.632;2023-03-15T11:35:03;100020.19;;;13.60;31.83
34237;BME280;20501;45.956;13.632;2023-03-15T11:37:51;100034.41;;;13.70;37.82
34237;BME280;20501;45.956;13.632;2023-03-15T11:40:22;100033.44;;;13.46;37.85
34237;BME280;20501;45.956;13.632;2023-03-15T11:43:00;100044.28;;;13.38;41.70
34237;BME280;20501;45.956;13.632;2023-03-15T11:45:43;100038.84;;;13.22;37.86
34237;BME280;20501;45.956;13.632;2023-03-15T11:50:57;100040.41;;;12.99;35.58
34237;BME280;20501;45.956;13.632;2023-03-15T11:53:31;100041.91;;;13.10;34.79
34237;BME280;20501;45.956;13.632;2023-03-15T11:56:18;100040.22;;;12.93;32.96
34237;BME280;20501;45.956;13.632;2023-03-15T11:59:08;100050.72;;;13.37;36.53
34237;BME280;20501;45.956;13.632;2023-03-15T12:01:36;100036.09;;;13.63;31.76
34237;BME280;20501;45.956;13.632;2023-03-15T12:06:58;100047.34;;;13.43;32.78
34237;BME280;20501;45.956;13.632;2023-03-15T12:14:47;100047.81;;;13.39;31.09
34237;BME280;20501;45.956;13.632;2023-03-15T12:22:24;100053.59;;;12.78;31.86
34237;BME280;20501;45.956;13.632;2023-03-15T12:24:57;100053.94;;;12.99;34.36
34237;BME280;20501;45.956;13.632;2023-03-15T12:27:28;100051.91;;;12.77;32.84
34237;BME280;20501;45.956;13.632;2023-03-15T12:29:58;100053.91;;;12.75;38.88
34237;BME280;20501;45.956;13.632;2023-03-15T12:32:26;100044.91;;;12.74;39.84
34237;BME280;20501;45.956;13.632;2023-03-15T12:34:56;100045.97;;;12.73;33.50
34237;BME280;20501;45.956;13.632;2023-03-15T12:37:43;100050.00;;;12.69;41.01
34237;BME280;20501;45.956;13.632;2023-03-15T12:55:57;100054.44;;;12.78;33.01
34237;BME280;20501;45.956;13.632;2023-03-15T12:58:34;100046.44;;;12.60;33.28
34237;BME280;20501;45.956;13.632;2023-03-15T13:01:03;100049.63;;;12.47;29.22
34237;BME280;20501;45.956;13.632;2023-03-15T13:03:29;100056.06;;;12.46;32.69
34237;BME280;20501;45.956;13.632;2023-03-15T13:09:08;100061.22;;;12.82;43.33
34237;BME280;20501;45.956;13.632;2023-03-15T13:23:17;100059.50;;;12.73;27.55
34237;BME280;20501;45.956;13.632;2023-03-15T13:28:22;100063.41;;;13.04;38.89
34237;BME280;20501;45.956;13.632;2023-03-15T13:30:51;100068.84;;;12.95;32.34
34237;BME280;20501;45.956;13.632;2023-03-15T13:33:23;100072.75;;;12.93;34.91
34237;BME280;20501;45.956;13.632;2023-03-15T13:35:54;100070.38;;;12.81;31.56
34237;BME280;20501;45.956;13.632;2023-03-15T13:38:24;100061.22;;;13.32;31.39
34237;BME280;20501;45.956;13.632;2023-03-15T13:40:50;100058.84;;;13.29;29.77
34237;BME280;20501;45.956;13.632;2023-03-15T13:43:15;100058.50;;;12.91;27.35
34237;BME280;20501;45.956;13.632;2023-03-15T13:45:42;100059.34;;;12.83;29.14
34237;BME280;20501;45.956;13.632;2023-03-15T13:48:08;100057.81;;;12.72;26.98
34237;BME280;20501;45.956;13.632;2023-03-15T13:50:34;100058.47;;;12.58;25.40
34237;BME280;20501;45.956;13.632;2023-03-15T13:52:59;100071.50;;;12.70;29.30
34237;BME280;20501;45.956;13.632;2023-03-15T13:55:31;100065.56;;;12.50;24.19
34237;BME280;20501;45.956;13.632;2023-03-15T13:58:00;100074.19;;;12.46;24.77
34237;BME280;20501;45.956;13.632;2023-03-15T14:00:30;100071.28;;;12.39;24.33
34237;BME280;20501;45.956;13.632;2023-03-15T14:03:01;100087.38;;;12.41;26.45
34237;BME280;20501;45.956;13.632;2023-03-15T14:05:32;100083.16;;;12.54;28.26